ΕΜΥ, Εθνική Μετεωρολογική Υπηρεσία - Δελτία Καιρού, Προγνώσεις

ΑΕΡΟΝΑΥΤΙΛΙΑ

GREEK AIRPORTS CODES

LGTL 280520Z 03004KT 9999 FEW018 SCT025 16/11 Q1019=

EUROPEAN AIRPORTS CODES

LFPO 280530Z AUTO 01009KT 9999 2200 NSC 14/08 Q1031 NOSIG=